Weather at Vali Ranch Heliport

Public forecast

Using degrees Celsius for public forecast. Weather courtesy of forecast.io.

Closest aviation weather report (METAR) to Vali Ranch Heliport

Closest report is Priština Adem Jashari International Airport, 22.3 nm (41.4 km) W.

2024/05/19 21:30 (retrieved 8 minutes ago)

BKPR 192130Z VRB02KT 9999 FEW035CB SCT040 19/16 Q1013 TEMPO TS

Closest aviation forecast (TAF) to Vali Ranch Heliport

Closest forecast is Priština Adem Jashari International Airport, 22.3 nm (41.4 km) W.

2024/05/19 18:00 (retrieved 4 hours ago)

TAF BKPR 191730Z 1918/2018 15010KT 9999 BKN040 TEMPO 1919/1923 VRB15G25KT 4000 TSRA SCT025CB TEMPO 2004/2018 VRB15G25KT 5000 -TSRA SCT025CB